Albuquerque, NM

3:15 PM MDT on September 01, 2014 (GMT -0600)
Albuquerque International Sunport | Change Station
CLOSE
Current Station
Airport
Location: Albuquerque,
Elevation: 5312 ft
Nearby Weather Stations

Elev 5312 ft 35.04 °N, 106.61 °W | Updated 23 minutes ago

Partly Cloudy
Partly Cloudy
90 °F
Feels Like 90 °F
N
12
Wind Variable Wind from WSW

Today
High -- | Low -- °F
--% Chance of Precip.
Yesterday
High -- | Low -- °F
Precip. -- in
6:39 AM 7:33 PM
Waxing Crescent, 44% visible
Pressure 29.78 in
Visibility 10.0 miles
Clouds Few 9000 ft
Few 20000 ft
Dew Point 37 °F
Humidity 15%
Rainfall 0.00 in
Snow Depth Not available.
UV 8 out of 12
Pollen 8.90 out of 12
Air Quality Not available.
Flu Activity Not available.
METAR KABQ 012052Z COR 24010KT 10SM FEW090 FEW200 32/03 A3006 RMK AO2 SLP083 T03220028 58019

More Conditions Fewer Conditions

Pressure 29.78 in
Visibility 10.0 miles
Clouds Few 9000 ft
Few 20000 ft
Dew Point 37 °F
Humidity 15%
Rainfall 0.00 in
Snow Depth Not available.
UV 8 out of 12
Pollen 8.90 out of 12
Air Quality Not available.
Flu Activity Not available.
METAR KABQ 012052Z COR 24010KT 10SM FEW090 FEW200 32/03 A3006 RMK AO2 SLP083 T03220028 58019

More Conditions Fewer Conditions

10-Day Weather Forecast

Almanac

Astronomy

Sep. 01, 2014 Rise Set
Actual Time 6:39 AM MDT 7:33 PM MDT
Civil Twilight 6:13 AM MDT 7:58 PM MDT
Nautical Twilight 5:42 AM MDT 8:29 PM MDT
Astronomical Twilight 5:11 AM MDT 9:00 PM MDT
Moon 1:12 PM MDT 11:52 PM MDT
Length of Visible Light 13h 45m
Length of Day
12h 53m
Tomorrow will be 2m 7s shorter.
Waxing Crescent, 44% of the Moon is Illuminated
Today
Waxing Crescent
Sep 2
First Quarter
Sep 8
Full
Sep 15
Last Quarter
Sep 24
New

Today's Extremes

State Highs State Lows

Community

WunderPhotos

Upload Photos

1,749,409 photos uploaded!

WunderBlogs® & News

Nearby

Snow Depth

Station Depth Elevation
Santa Fe 0 in 11445 ft
Wesner Springs 0 in 11120 ft
Gallegos Peak 0 in 9800 ft
Hopewell 0 in 10000 ft
Sierra Blanca 0 in 10280 ft

Earthquake Activity

City Distance Mag. Time & Date
No recent earthquake activity has been reported nearby.
Minimum magnitude displayed is 2.5.

Coastal Water Temperatures

Place Temperature
No Stations Reporting

Nearby Weather Stations